Time,TemperatureF,DewpointF,PressureIn,WindDirection,WindDirectionDegrees,WindSpeedMPH,WindSpeedGustMPH,Humidity,HourlyPrecipIn,Conditions,Clouds,dailyrainin,SoftwareType,DateUTC
2013-05-23 00:02:00,57.7,53.6,29.91,SW,225,0.0,0.0,86,0.00,,,0.00,meteohub,2013-05-23 05:02:00,
2013-05-23 00:07:00,57.6,53.4,29.91,SW,225,0.0,0.0,86,0.00,,,0.00,meteohub,2013-05-23 05:07:00,
2013-05-23 00:12:00,57.7,53.6,29.91,SW,225,0.0,0.0,86,0.00,,,0.00,meteohub,2013-05-23 05:12:00,
2013-05-23 00:17:00,57.7,53.6,29.91,SW,225,0.0,0.0,86,0.00,,,0.00,meteohub,2013-05-23 05:17:00,
2013-05-23 00:22:00,57.4,53.2,29.91,SW,225,0.0,0.0,86,0.00,,,0.00,meteohub,2013-05-23 05:22:00,
2013-05-23 00:27:00,57.4,53.2,29.91,SW,225,0.0,0.0,86,0.00,,,0.00,meteohub,2013-05-23 05:27:00,
2013-05-23 00:32:00,57.4,53.6,29.91,SW,225,0.0,0.0,87,0.00,,,0.00,meteohub,2013-05-23 05:32:00,
2013-05-23 00:37:00,57.2,53.4,29.91,SW,225,0.0,0.0,87,0.00,,,0.00,meteohub,2013-05-23 05:37:00,
2013-05-23 00:42:00,57.2,53.4,29.91,SW,225,0.0,0.0,87,0.00,,,0.00,meteohub,2013-05-23 05:42:00,
2013-05-23 00:47:00,57.2,53.4,29.91,SW,225,0.0,0.0,87,0.00,,,0.00,meteohub,2013-05-23 05:47:00,
2013-05-23 00:52:00,57.0,53.2,29.91,SW,225,0.0,0.0,87,0.00,,,0.00,meteohub,2013-05-23 05:52:00,
2013-05-23 00:57:00,57.0,53.2,29.91,SW,225,0.0,0.0,87,0.00,,,0.00,meteohub,2013-05-23 05:57:00,
2013-05-23 01:02:00,56.7,52.9,29.91,SW,225,0.0,0.0,87,0.00,,,0.00,meteohub,2013-05-23 06:02:00,
2013-05-23 01:07:00,56.5,52.7,29.91,SW,225,0.0,0.0,87,0.00,,,0.00,meteohub,2013-05-23 06:07:00,
2013-05-23 01:12:00,56.5,52.7,29.91,SW,225,0.0,0.0,87,0.00,,,0.00,meteohub,2013-05-23 06:12:00,
2013-05-23 01:17:00,56.3,52.5,29.91,SW,225,0.0,0.0,87,0.00,,,0.00,meteohub,2013-05-23 06:17:00,
2013-05-23 01:22:00,56.3,52.5,29.92,SW,225,0.0,0.0,87,0.00,,,0.00,meteohub,2013-05-23 06:22:00,
2013-05-23 01:27:00,56.1,52.3,29.92,SW,225,0.0,0.0,87,0.00,,,0.00,meteohub,2013-05-23 06:27:00,
2013-05-23 01:32:00,55.9,52.5,29.92,SW,225,0.0,0.0,88,0.00,,,0.00,meteohub,2013-05-23 06:32:00,
2013-05-23 01:37:00,55.9,52.5,29.92,SW,225,0.0,0.0,88,0.00,,,0.00,meteohub,2013-05-23 06:37:00,
2013-05-23 01:42:00,55.8,52.3,29.92,SW,225,0.0,0.0,88,0.00,,,0.00,meteohub,2013-05-23 06:42:00,
2013-05-23 01:47:00,55.6,52.2,29.92,SW,225,0.0,0.0,88,0.00,,,0.00,meteohub,2013-05-23 06:47:00,
2013-05-23 01:52:00,55.6,52.2,29.92,SW,225,0.0,0.0,88,0.00,,,0.00,meteohub,2013-05-23 06:52:00,
2013-05-23 01:57:00,55.6,52.2,29.92,SW,225,0.0,0.0,88,0.00,,,0.00,meteohub,2013-05-23 06:57:00,
2013-05-23 02:02:00,55.4,52.0,29.92,SW,225,0.0,0.0,88,0.00,,,0.00,meteohub,2013-05-23 07:02:00,
2013-05-23 02:07:00,55.2,51.8,29.92,SW,225,0.0,0.0,88,0.00,,,0.00,meteohub,2013-05-23 07:07:00,
2013-05-23 02:12:00,55.0,51.6,29.92,SW,225,0.0,0.0,88,0.00,,,0.00,meteohub,2013-05-23 07:12:00,
2013-05-23 02:17:00,55.0,51.6,29.92,SW,225,0.0,0.0,88,0.00,,,0.00,meteohub,2013-05-23 07:17:00,
2013-05-23 02:22:00,55.0,51.6,29.91,SW,225,0.0,0.0,88,0.00,,,0.00,meteohub,2013-05-23 07:22:00,
2013-05-23 02:27:00,54.9,51.4,29.91,SW,225,0.0,0.0,88,0.00,,,0.00,meteohub,2013-05-23 07:27:00,
2013-05-23 02:32:00,54.9,51.4,29.91,SW,225,0.0,0.0,88,0.00,,,0.00,meteohub,2013-05-23 07:32:00,
2013-05-23 02:37:00,54.9,51.4,29.91,SW,225,0.0,0.0,88,0.00,,,0.00,meteohub,2013-05-23 07:37:00,
2013-05-23 02:42:00,54.5,51.1,29.92,SW,225,0.0,0.0,88,0.00,,,0.00,meteohub,2013-05-23 07:42:00,
2013-05-23 02:47:00,54.5,51.1,29.92,SW,225,0.0,0.0,88,0.00,,,0.00,meteohub,2013-05-23 07:47:00,
2013-05-23 02:52:00,54.3,51.1,29.92,SW,225,0.0,0.0,89,0.00,,,0.00,meteohub,2013-05-23 07:52:00,
2013-05-23 02:57:00,54.5,51.3,29.92,SW,225,0.0,0.0,89,0.00,,,0.00,meteohub,2013-05-23 07:57:00,
2013-05-23 03:02:00,54.1,50.9,29.92,SW,225,0.0,0.0,89,0.00,,,0.00,meteohub,2013-05-23 08:02:00,
2013-05-23 03:07:00,54.0,50.7,29.92,SW,225,0.0,0.0,89,0.00,,,0.00,meteohub,2013-05-23 08:07:00,
2013-05-23 03:12:00,54.1,50.9,29.92,SW,225,0.0,0.0,89,0.00,,,0.00,meteohub,2013-05-23 08:12:00,
2013-05-23 03:17:00,53.8,50.5,29.92,SW,225,0.0,0.0,89,0.00,,,0.00,meteohub,2013-05-23 08:17:00,
2013-05-23 03:22:00,53.8,50.5,29.92,SW,225,0.0,0.0,89,0.00,,,0.00,meteohub,2013-05-23 08:22:00,
2013-05-23 03:27:00,53.8,50.5,29.92,SW,225,0.0,0.0,89,0.00,,,0.00,meteohub,2013-05-23 08:27:00,
2013-05-23 03:32:00,53.8,50.5,29.92,SW,225,0.0,0.0,89,0.00,,,0.00,meteohub,2013-05-23 08:32:00,
2013-05-23 03:37:00,53.6,50.4,29.92,SW,225,0.0,0.0,89,0.00,,,0.00,meteohub,2013-05-23 08:37:00,
2013-05-23 03:42:00,53.6,50.4,29.93,SW,225,0.0,0.0,89,0.00,,,0.00,meteohub,2013-05-23 08:42:00,
2013-05-23 03:47:00,53.6,50.4,29.93,SW,225,0.0,0.0,89,0.00,,,0.00,meteohub,2013-05-23 08:47:00,
2013-05-23 03:52:00,53.4,50.2,29.93,SW,225,0.0,0.0,89,0.00,,,0.00,meteohub,2013-05-23 08:52:00,
2013-05-23 03:57:00,53.4,50.2,29.93,SW,225,0.0,0.0,89,0.00,,,0.00,meteohub,2013-05-23 08:57:00,
2013-05-23 04:02:00,53.4,50.5,29.92,SW,225,0.0,0.0,90,0.00,,,0.00,meteohub,2013-05-23 09:02:00,
2013-05-23 04:07:00,53.4,50.5,29.92,SW,225,0.0,0.0,90,0.00,,,0.00,meteohub,2013-05-23 09:07:00,
2013-05-23 04:12:00,53.2,50.4,29.92,SW,225,0.0,0.0,90,0.00,,,0.00,meteohub,2013-05-23 09:12:00,
2013-05-23 04:17:00,53.1,50.2,29.92,SW,225,0.0,0.0,90,0.00,,,0.00,meteohub,2013-05-23 09:17:00,
2013-05-23 04:22:00,52.9,49.6,29.93,SW,225,0.0,0.0,89,0.00,,,0.00,meteohub,2013-05-23 09:22:00,
2013-05-23 04:27:00,52.9,49.6,29.93,SW,225,0.0,0.0,89,0.00,,,0.00,meteohub,2013-05-23 09:27:00,
2013-05-23 04:32:00,53.1,50.2,29.93,SW,225,0.0,0.0,90,0.00,,,0.00,meteohub,2013-05-23 09:32:00,
2013-05-23 04:37:00,53.1,50.2,29.93,SW,225,0.0,0.0,90,0.00,,,0.00,meteohub,2013-05-23 09:37:00,
2013-05-23 04:42:00,52.9,49.6,29.94,SW,225,0.0,0.0,89,0.00,,,0.00,meteohub,2013-05-23 09:42:00,
2013-05-23 04:47:00,52.9,49.6,29.94,SW,225,0.0,0.0,89,0.00,,,0.00,meteohub,2013-05-23 09:47:00,
2013-05-23 04:51:00,52.7,49.5,29.94,SW,225,0.0,0.0,89,0.00,,,0.00,meteohub,2013-05-23 09:51:00,
2013-05-23 04:56:00,52.5,49.5,29.94,SW,225,0.0,0.0,89,0.00,,,0.00,meteohub,2013-05-23 09:56:00,
2013-05-23 05:01:00,52.7,49.5,29.94,SW,225,0.0,0.0,89,0.00,,,0.00,meteohub,2013-05-23 10:01:00,
2013-05-23 05:06:00,52.5,49.6,29.94,SW,225,0.0,0.0,90,0.00,,,0.00,meteohub,2013-05-23 10:06:00,
2013-05-23 05:11:00,52.3,49.3,29.94,SW,225,0.0,0.0,89,0.00,,,0.00,meteohub,2013-05-23 10:11:00,
2013-05-23 05:16:00,52.2,49.1,29.94,SW,225,0.0,0.0,89,0.00,,,0.00,meteohub,2013-05-23 10:16:00,
2013-05-23 05:22:00,52.2,49.3,29.95,SW,225,0.0,0.0,90,0.00,,,0.00,meteohub,2013-05-23 10:22:00,
2013-05-23 05:26:00,52.2,49.3,29.95,SW,225,0.0,0.0,90,0.00,,,0.00,meteohub,2013-05-23 10:26:00,
2013-05-23 05:31:00,52.0,49.1,29.95,SW,225,0.0,0.0,90,0.00,,,0.00,meteohub,2013-05-23 10:31:00,
2013-05-23 05:36:00,52.0,49.1,29.95,SW,225,0.0,0.0,90,0.00,,,0.00,meteohub,2013-05-23 10:36:00,
2013-05-23 05:42:00,52.0,49.1,29.96,WSW,248,0.0,0.0,90,0.00,,,0.00,meteohub,2013-05-23 10:42:00,
2013-05-23 05:47:00,52.2,49.3,29.96,SW,225,0.0,0.0,90,0.00,,,0.00,meteohub,2013-05-23 10:47:00,
2013-05-23 05:52:00,52.2,49.3,29.96,South,180,0.0,0.0,90,0.00,,,0.00,meteohub,2013-05-23 10:52:00,
2013-05-23 05:57:00,52.3,49.5,29.96,NW,315,0.0,0.0,90,0.00,,,0.00,meteohub,2013-05-23 10:57:00,
2013-05-23 06:02:00,52.2,49.3,29.97,NW,315,0.0,0.0,90,0.00,,,0.00,meteohub,2013-05-23 11:02:00,
2013-05-23 06:07:00,52.5,50.0,29.97,NW,315,1.0,0.0,91,0.00,,,0.00,meteohub,2013-05-23 11:07:00,
2013-05-23 06:12:00,53.4,50.9,29.97,South,180,0.0,1.0,91,0.00,,,0.00,meteohub,2013-05-23 11:12:00,
2013-05-23 06:17:00,53.6,51.1,29.97,NW,315,2.0,2.0,91,0.00,,,0.00,meteohub,2013-05-23 11:17:00,
2013-05-23 06:22:00,54.3,52.0,29.97,West,270,0.0,2.0,92,0.00,,,0.00,meteohub,2013-05-23 11:22:00,
2013-05-23 06:27:00,54.7,52.3,29.97,SW,225,0.0,2.0,92,0.00,,,0.00,meteohub,2013-05-23 11:27:00,
2013-05-23 06:32:00,55.0,52.7,29.97,West,270,0.0,2.0,92,0.00,,,0.00,meteohub,2013-05-23 11:32:00,
2013-05-23 06:37:00,55.4,53.1,29.98,NW,315,0.0,0.0,92,0.00,,,0.00,meteohub,2013-05-23 11:37:00,
2013-05-23 06:42:00,55.6,53.1,29.98,WNW,293,0.0,0.0,91,0.00,,,0.00,meteohub,2013-05-23 11:42:00,
2013-05-23 06:47:00,55.8,53.2,29.98,WSW,248,0.0,0.0,91,0.00,,,0.00,meteohub,2013-05-23 11:47:00,
2013-05-23 06:52:00,55.8,53.2,29.98,South,180,0.0,0.0,91,0.00,,,0.00,meteohub,2013-05-23 11:52:00,
2013-05-23 06:57:00,55.9,53.4,29.98,SW,225,0.0,0.0,91,0.00,,,0.00,meteohub,2013-05-23 11:57:00,
2013-05-23 07:02:00,56.3,53.8,29.98,SW,225,0.0,0.0,91,0.00,,,0.00,meteohub,2013-05-23 12:02:00,
2013-05-23 07:07:00,56.3,53.8,29.98,NW,315,0.0,0.0,91,0.00,,,0.00,meteohub,2013-05-23 12:07:00,
2013-05-23 07:12:00,56.5,54.0,29.98,South,180,0.0,0.0,91,0.00,,,0.00,meteohub,2013-05-23 12:12:00,
2013-05-23 07:17:00,56.7,54.1,29.99,SW,225,0.0,0.0,91,0.00,,,0.00,meteohub,2013-05-23 12:17:00,
2013-05-23 07:22:00,57.0,54.5,29.99,SW,225,0.0,0.0,91,0.00,,,0.00,meteohub,2013-05-23 12:22:00,
2013-05-23 07:27:00,57.2,54.7,29.99,WNW,293,0.0,0.0,91,0.00,,,0.00,meteohub,2013-05-23 12:27:00,
2013-05-23 07:32:00,57.4,54.5,29.99,SSW,203,0.0,2.0,90,0.00,,,0.00,meteohub,2013-05-23 12:32:00,
2013-05-23 07:37:00,57.7,54.9,29.99,NW,315,1.0,2.0,90,0.00,,,0.00,meteohub,2013-05-23 12:37:00,
2013-05-23 07:42:00,58.1,54.9,29.99,SW,225,0.0,2.0,89,0.00,,,0.00,meteohub,2013-05-23 12:42:00,
2013-05-23 07:47:00,58.5,55.6,29.99,WSW,248,0.0,1.0,90,0.00,,,0.00,meteohub,2013-05-23 12:47:00,
2013-05-23 07:52:00,58.6,55.4,29.99,West,270,0.0,1.0,89,0.00,,,0.00,meteohub,2013-05-23 12:52:00,
2013-05-23 07:57:00,59.2,55.6,29.98,WNW,293,1.0,0.0,88,0.00,,,0.00,meteohub,2013-05-23 12:57:00,
2013-05-23 08:02:00,59.4,55.4,29.98,SE,135,0.0,0.0,87,0.00,,,0.00,meteohub,2013-05-23 13:02:00,
2013-05-23 08:07:00,59.5,55.6,29.98,South,180,0.0,1.0,87,0.00,,,0.00,meteohub,2013-05-23 13:07:00,
2013-05-23 08:12:00,59.5,55.4,29.98,South,180,0.0,1.0,86,0.00,,,0.00,meteohub,2013-05-23 13:12:00,
2013-05-23 08:17:00,59.9,55.4,29.98,SW,225,0.0,0.0,85,0.00,,,0.00,meteohub,2013-05-23 13:17:00,
2013-05-23 08:22:00,60.1,55.6,29.98,SW,225,0.0,0.0,85,0.00,,,0.00,meteohub,2013-05-23 13:22:00,
2013-05-23 08:27:00,60.6,56.1,29.98,East,90,0.0,2.0,85,0.00,,,0.00,meteohub,2013-05-23 13:27:00,
2013-05-23 08:32:00,60.8,55.9,29.98,SSE,158,0.0,2.0,84,0.00,,,0.00,meteohub,2013-05-23 13:32:00,
2013-05-23 08:37:00,60.8,55.6,29.98,ENE,68,2.0,3.0,83,0.00,,,0.00,meteohub,2013-05-23 13:37:00,
2013-05-23 08:42:00,60.8,55.2,29.96,West,270,2.0,3.0,82,0.00,,,0.00,meteohub,2013-05-23 13:42:00,
2013-05-23 08:47:00,61.0,55.4,29.96,NNW,338,0.0,3.0,82,0.00,,,0.00,meteohub,2013-05-23 13:47:00,
2013-05-23 08:52:00,61.3,55.4,29.96,SW,225,0.0,2.0,81,0.00,,,0.00,meteohub,2013-05-23 13:52:00,
2013-05-23 08:57:00,61.5,55.6,29.99,NW,315,3.0,3.0,81,0.00,,,0.00,meteohub,2013-05-23 13:57:00,
2013-05-23 09:02:00,61.5,55.6,29.99,SW,225,3.0,3.0,81,0.00,,,0.00,meteohub,2013-05-23 14:02:00,
2013-05-23 09:07:00,62.1,55.8,29.99,WSW,248,2.0,3.0,80,0.00,,,0.00,meteohub,2013-05-23 14:07:00,
2013-05-23 09:12:00,62.1,55.8,29.99,West,270,0.0,3.0,80,0.00,,,0.00,meteohub,2013-05-23 14:12:00,
2013-05-23 09:17:00,62.2,55.9,29.99,NNW,338,2.0,3.0,80,0.00,,,0.00,meteohub,2013-05-23 14:17:00,
2013-05-23 09:22:00,62.2,55.6,30.01,NW,315,1.0,3.0,79,0.00,,,0.00,meteohub,2013-05-23 14:22:00,
2013-05-23 09:27:00,62.8,56.1,30.01,WSW,248,5.0,5.0,79,0.00,,,0.00,meteohub,2013-05-23 14:27:00,
2013-05-23 09:32:00,62.8,56.1,30.01,West,270,3.0,4.0,79,0.00,,,0.00,meteohub,2013-05-23 14:32:00,
2013-05-23 09:37:00,63.0,55.9,30.04,WSW,248,4.0,5.0,78,0.00,,,0.00,meteohub,2013-05-23 14:37:00,
2013-05-23 09:42:00,63.3,56.3,30.04,West,270,5.0,5.0,78,0.00,,,0.00,meteohub,2013-05-23 14:42:00,
2013-05-23 09:47:00,63.5,56.5,30.04,NNE,23,4.0,5.0,78,0.00,,,0.00,meteohub,2013-05-23 14:47:00,
2013-05-23 09:52:00,63.5,56.5,30.04,NW,315,7.0,7.0,78,0.00,,,0.00,meteohub,2013-05-23 14:52:00,
2013-05-23 09:57:00,63.3,55.9,30.04,NW,315,6.0,7.0,77,0.00,,,0.00,meteohub,2013-05-23 14:57:00,
2013-05-23 10:02:00,63.5,56.1,30.05,West,270,5.0,7.0,77,0.00,,,0.00,meteohub,2013-05-23 15:02:00,
2013-05-23 10:07:00,63.3,55.9,30.05,WNW,293,5.0,7.0,77,0.00,,,0.00,meteohub,2013-05-23 15:07:00,
2013-05-23 10:12:00,63.7,55.9,30.05,South,180,2.0,8.0,76,0.00,,,0.00,meteohub,2013-05-23 15:12:00,
2013-05-23 10:17:00,63.9,56.1,30.03,NW,315,2.0,8.0,76,0.00,,,0.00,meteohub,2013-05-23 15:17:00,
2013-05-23 10:22:00,63.9,56.1,30.03,West,270,4.0,8.0,76,0.00,,,0.00,meteohub,2013-05-23 15:22:00,
2013-05-23 10:27:00,64.0,56.3,30.03,NW,315,3.0,8.0,76,0.00,,,0.00,meteohub,2013-05-23 15:27:00,
2013-05-23 10:32:00,64.2,56.5,30.03,West,270,4.0,8.0,76,0.00,,,0.00,meteohub,2013-05-23 15:32:00,
2013-05-23 10:37:00,64.4,56.7,30.03,NW,315,7.0,7.0,76,0.00,,,0.00,meteohub,2013-05-23 15:37:00,
2013-05-23 10:42:00,64.4,56.3,30.03,WSW,248,4.0,7.0,75,0.00,,,0.00,meteohub,2013-05-23 15:42:00,
2013-05-23 10:47:00,64.6,56.8,30.03,WSW,248,4.0,7.0,76,0.00,,,0.00,meteohub,2013-05-23 15:47:00,
2013-05-23 10:52:00,64.8,56.7,30.03,NW,315,1.0,7.0,75,0.00,,,0.00,meteohub,2013-05-23 15:52:00,
2013-05-23 10:57:00,65.1,57.0,30.02,NW,315,0.0,5.0,75,0.00,,,0.00,meteohub,2013-05-23 15:57:00,
2013-05-23 11:02:00,65.1,57.0,30.02,SW,225,5.0,5.0,75,0.00,,,0.00,meteohub,2013-05-23 16:02:00,
2013-05-23 11:07:00,65.3,56.8,30.02,WSW,248,6.0,6.0,74,0.00,,,0.00,meteohub,2013-05-23 16:07:00,
2013-05-23 11:12:00,65.3,56.8,30.02,WSW,248,3.0,6.0,74,0.00,,,0.00,meteohub,2013-05-23 16:12:00,
2013-05-23 11:17:00,65.5,57.4,30.03,SSW,203,0.0,6.0,75,0.00,,,0.00,meteohub,2013-05-23 16:17:00,
2013-05-23 11:22:00,65.7,57.2,30.03,West,270,7.0,7.0,74,0.00,,,0.00,meteohub,2013-05-23 16:22:00,
2013-05-23 11:27:00,65.8,57.7,30.03,NW,315,0.0,7.0,75,0.00,,,0.00,meteohub,2013-05-23 16:27:00,
2013-05-23 11:32:00,66.0,57.9,30.03,NNW,338,0.0,7.0,75,0.00,,,0.00,meteohub,2013-05-23 16:32:00,
2013-05-23 11:37:00,66.2,57.7,30.01,SW,225,0.0,7.0,74,0.00,,,0.00,meteohub,2013-05-23 16:37:00,
2013-05-23 11:42:00,66.4,58.3,30.01,South,180,0.0,6.0,75,0.00,,,0.00,meteohub,2013-05-23 16:42:00,
2013-05-23 11:47:00,66.6,58.5,30.01,SSW,203,0.0,4.0,75,0.00,,,0.00,meteohub,2013-05-23 16:47:00,
2013-05-23 11:52:00,66.9,58.3,30.01,NNW,338,2.0,4.0,74,0.00,,,0.00,meteohub,2013-05-23 16:52:00,
2013-05-23 11:57:00,67.1,58.5,30.03,NW,315,0.0,4.0,74,0.00,,,0.00,meteohub,2013-05-23 16:57:00,
2013-05-23 12:02:00,67.1,58.1,30.03,WSW,248,7.0,7.0,73,0.00,,,0.00,meteohub,2013-05-23 17:02:00,
2013-05-23 12:07:00,67.5,58.5,30.03,South,180,2.0,7.0,73,0.00,,,0.00,meteohub,2013-05-23 17:07:00,
2013-05-23 12:12:00,67.6,58.6,30.03,WNW,293,3.0,7.0,73,0.00,,,0.00,meteohub,2013-05-23 17:12:00,
2013-05-23 12:17:00,67.8,58.5,30.03,NW,315,0.0,7.0,72,0.00,,,0.00,meteohub,2013-05-23 17:17:00,
2013-05-23 12:22:00,67.6,58.3,30.03,West,270,0.0,4.0,72,0.00,,,0.00,meteohub,2013-05-23 17:22:00,
2013-05-23 12:27:00,67.8,58.5,30.03,WNW,293,2.0,4.0,72,0.00,,,0.00,meteohub,2013-05-23 17:27:00,
2013-05-23 12:32:00,67.8,58.8,30.03,South,180,0.0,4.0,73,0.00,,,0.00,meteohub,2013-05-23 17:32:00,
2013-05-23 12:37:00,68.2,58.8,30.05,East,90,0.0,3.0,72,0.00,,,0.00,meteohub,2013-05-23 17:37:00,
2013-05-23 12:42:00,68.0,58.6,30.05,SW,225,0.0,3.0,72,0.00,,,0.00,meteohub,2013-05-23 17:42:00,
2013-05-23 12:47:00,68.4,59.0,30.05,WSW,248,5.0,5.0,72,0.00,,,0.00,meteohub,2013-05-23 17:47:00,
2013-05-23 12:52:00,68.5,59.2,30.04,WSW,248,0.0,8.0,72,0.00,,,0.00,meteohub,2013-05-23 17:52:00,
2013-05-23 12:57:00,68.4,59.0,30.05,WSW,248,5.0,8.0,72,0.00,,,0.00,meteohub,2013-05-23 17:57:00,
2013-05-23 13:03:00,68.7,59.0,30.05,West,270,3.0,8.0,71,0.00,,,0.00,meteohub,2013-05-23 18:03:00,
2013-05-23 13:08:00,68.9,59.2,30.05,West,270,4.0,6.0,71,0.00,,,0.00,meteohub,2013-05-23 18:08:00,
2013-05-23 13:13:00,68.9,59.2,30.05,WSW,248,2.0,5.0,71,0.00,,,0.00,meteohub,2013-05-23 18:13:00,
2013-05-23 13:18:00,69.3,59.5,30.05,West,270,1.0,5.0,71,0.00,,,0.00,meteohub,2013-05-23 18:18:00,
2013-05-23 13:23:00,69.1,59.7,30.05,SW,225,4.0,5.0,72,0.00,,,0.00,meteohub,2013-05-23 18:23:00,
2013-05-23 13:28:00,69.4,59.5,30.05,SE,135,1.0,7.0,71,0.00,,,0.00,meteohub,2013-05-23 18:28:00,
2013-05-23 13:33:00,69.4,59.5,30.05,NW,315,4.0,7.0,71,0.00,,,0.00,meteohub,2013-05-23 18:33:00,
2013-05-23 13:38:00,69.4,59.5,30.04,WNW,293,4.0,7.0,71,0.00,,,0.00,meteohub,2013-05-23 18:38:00,
2013-05-23 13:43:00,69.8,59.9,30.04,West,270,4.0,6.0,71,0.00,,,0.00,meteohub,2013-05-23 18:43:00,
2013-05-23 13:48:00,70.0,60.1,30.04,SSE,158,0.0,6.0,71,0.00,,,0.00,meteohub,2013-05-23 18:48:00,
2013-05-23 13:53:00,70.3,60.4,30.04,NW,315,5.0,5.0,71,0.00,,,0.00,meteohub,2013-05-23 18:53:00,
2013-05-23 13:58:00,70.7,60.8,30.05,West,270,5.0,5.0,71,0.00,,,0.00,meteohub,2013-05-23 18:58:00,
2013-05-23 14:03:00,70.9,60.6,30.05,NW,315,3.0,5.0,70,0.00,,,0.00,meteohub,2013-05-23 19:03:00,
2013-05-23 14:08:00,70.9,60.6,30.05,WSW,248,3.0,6.0,70,0.00,,,0.00,meteohub,2013-05-23 19:08:00,
2013-05-23 14:13:00,71.1,60.8,30.05,West,270,3.0,6.0,70,0.00,,,0.00,meteohub,2013-05-23 19:13:00,
2013-05-23 14:18:00,71.2,61.0,30.05,NW,315,2.0,5.0,70,0.00,,,0.00,meteohub,2013-05-23 19:18:00,
2013-05-23 14:23:00,71.4,60.8,30.05,NW,315,1.0,5.0,69,0.00,,,0.00,meteohub,2013-05-23 19:23:00,
2013-05-23 14:28:00,71.6,61.3,30.05,WNW,293,6.0,6.0,70,0.00,,,0.00,meteohub,2013-05-23 19:28:00,
2013-05-23 14:33:00,72.0,61.7,30.05,WSW,248,8.0,8.0,70,0.00,,,0.00,meteohub,2013-05-23 19:33:00,
2013-05-23 14:38:00,72.3,61.5,30.08,NW,315,5.0,6.0,69,0.00,,,0.00,meteohub,2013-05-23 19:38:00,
2013-05-23 14:43:00,72.7,61.9,30.08,NW,315,1.0,8.0,69,0.00,,,0.00,meteohub,2013-05-23 19:43:00,
2013-05-23 14:48:00,72.9,61.7,30.08,NW,315,2.0,8.0,68,0.00,,,0.00,meteohub,2013-05-23 19:48:00,
2013-05-23 14:53:00,73.0,61.9,30.08,WNW,293,1.0,5.0,68,0.00,,,0.00,meteohub,2013-05-23 19:53:00,
2013-05-23 14:58:00,73.2,62.1,30.07,WNW,293,4.0,4.0,68,0.00,,,0.00,meteohub,2013-05-23 19:58:00,
2013-05-23 15:03:00,73.4,61.3,30.07,West,270,6.0,6.0,66,0.00,,,0.00,meteohub,2013-05-23 20:03:00,
2013-05-23 15:08:00,73.6,61.2,30.07,WNW,293,8.0,8.0,65,0.00,,,0.00,meteohub,2013-05-23 20:08:00,
2013-05-23 15:13:00,73.6,61.2,30.07,NW,315,4.0,9.0,65,0.00,,,0.00,meteohub,2013-05-23 20:13:00,
2013-05-23 15:18:00,73.9,61.9,30.08,WSW,248,4.0,9.0,66,0.00,,,0.00,meteohub,2013-05-23 20:18:00,
2013-05-23 15:23:00,73.9,61.9,30.08,West,270,3.0,9.0,66,0.00,,,0.00,meteohub,2013-05-23 20:23:00,
2013-05-23 15:28:00,73.9,61.9,30.08,NW,315,5.0,6.0,66,0.00,,,0.00,meteohub,2013-05-23 20:28:00,
2013-05-23 15:33:00,74.3,61.7,30.08,South,180,0.0,6.0,65,0.00,,,0.00,meteohub,2013-05-23 20:33:00,
2013-05-23 15:38:00,74.3,61.7,30.07,WSW,248,2.0,5.0,65,0.00,,,0.00,meteohub,2013-05-23 20:38:00,
2013-05-23 15:43:00,74.3,62.2,30.07,ESE,113,2.0,5.0,66,0.00,,,0.00,meteohub,2013-05-23 20:43:00,
2013-05-23 15:48:00,74.3,62.2,30.07,SE,135,3.0,3.0,66,0.00,,,0.00,meteohub,2013-05-23 20:48:00,
2013-05-23 15:53:00,74.3,61.7,30.07,WSW,248,0.0,3.0,65,0.00,,,0.00,meteohub,2013-05-23 20:53:00,
2013-05-23 15:58:00,74.3,61.7,30.07,West,270,4.0,4.0,65,0.00,,,0.00,meteohub,2013-05-23 20:58:00,
2013-05-23 16:03:00,74.5,61.9,30.07,WSW,248,0.0,4.0,65,0.00,,,0.00,meteohub,2013-05-23 21:03:00,
2013-05-23 16:08:00,74.5,61.5,30.07,SSW,203,0.0,4.0,64,0.00,,,0.00,meteohub,2013-05-23 21:08:00,
2013-05-23 16:13:00,74.7,62.1,30.07,ENE,68,0.0,4.0,65,0.00,,,0.00,meteohub,2013-05-23 21:13:00,
2013-05-23 16:18:00,74.7,62.1,30.04,West,270,0.0,3.0,65,0.00,,,0.00,meteohub,2013-05-23 21:18:00,
2013-05-23 16:23:00,74.3,61.7,30.05,SSE,158,0.0,3.0,65,0.00,,,0.00,meteohub,2013-05-23 21:23:00,
2013-05-23 16:28:00,74.3,61.7,30.05,NW,315,0.0,3.0,65,0.00,,,0.00,meteohub,2013-05-23 21:28:00,
2013-05-23 16:33:00,74.1,61.5,30.05,SE,135,0.0,3.0,65,0.00,,,0.00,meteohub,2013-05-23 21:33:00,
2013-05-23 16:38:00,73.9,61.3,30.02,SSE,158,0.0,0.0,65,0.00,,,0.00,meteohub,2013-05-23 21:38:00,
2013-05-23 16:43:00,73.8,61.3,30.02,SE,135,1.0,0.0,65,0.00,,,0.00,meteohub,2013-05-23 21:43:00,
2013-05-23 16:48:00,73.6,61.2,30.02,WNW,293,2.0,2.0,65,0.00,,,0.00,meteohub,2013-05-23 21:48:00,
2013-05-23 16:53:00,73.2,60.8,30.02,West,270,0.0,1.0,65,0.00,,,0.00,meteohub,2013-05-23 21:53:00,
2013-05-23 16:58:00,73.0,61.0,30.02,SE,135,0.0,2.0,66,0.00,,,0.00,meteohub,2013-05-23 21:58:00,
2013-05-23 17:03:00,73.2,61.2,30.02,SW,225,0.0,2.0,66,0.00,,,0.00,meteohub,2013-05-23 22:03:00,
2013-05-23 17:08:00,73.2,61.2,30.02,NNW,338,0.0,1.0,66,0.00,,,0.00,meteohub,2013-05-23 22:08:00,
2013-05-23 17:13:00,73.2,61.2,30.02,SSW,203,0.0,1.0,66,0.00,,,0.00,meteohub,2013-05-23 22:13:00,
2013-05-23 17:18:00,73.2,61.2,30.04,SE,135,1.0,1.0,66,0.00,,,0.00,meteohub,2013-05-23 22:18:00,
2013-05-23 17:23:00,73.0,61.0,30.04,SE,135,0.0,2.0,66,0.00,,,0.00,meteohub,2013-05-23 22:23:00,
2013-05-23 17:28:00,72.5,60.4,30.04,SSE,158,0.0,2.0,66,0.00,,,0.00,meteohub,2013-05-23 22:28:00,
2013-05-23 17:33:00,72.5,60.4,30.04,NW,315,1.0,2.0,66,0.00,,,0.00,meteohub,2013-05-23 22:33:00,
2013-05-23 17:38:00,72.5,60.4,30.04,SW,225,0.0,2.0,66,0.00,,,0.00,meteohub,2013-05-23 22:38:00,
2013-05-23 17:43:00,72.1,59.7,30.04,SE,135,0.0,2.0,65,0.00,,,0.00,meteohub,2013-05-23 22:43:00,
2013-05-23 17:49:00,72.1,60.1,30.04,SW,225,0.0,2.0,66,0.00,,,0.00,meteohub,2013-05-23 22:49:00,
2013-05-23 17:54:00,72.1,60.6,30.04,WSW,248,2.0,2.0,67,0.00,,,0.00,meteohub,2013-05-23 22:54:00,
2013-05-23 17:59:00,72.1,60.6,30.04,NNW,338,3.0,3.0,67,0.00,,,0.00,meteohub,2013-05-23 22:59:00,
2013-05-23 18:04:00,71.8,59.0,30.05,NE,45,3.0,3.0,64,0.00,,,0.00,meteohub,2013-05-23 23:04:00,
2013-05-23 18:09:00,71.4,59.0,30.05,West,270,2.0,3.0,65,0.00,,,0.00,meteohub,2013-05-23 23:09:00,
2013-05-23 18:14:00,71.4,59.5,30.05,ENE,68,2.0,3.0,66,0.00,,,0.00,meteohub,2013-05-23 23:14:00,
2013-05-23 18:19:00,71.1,59.2,30.02,SE,135,2.0,3.0,66,0.00,,,0.00,meteohub,2013-05-23 23:19:00,
2013-05-23 18:24:00,70.7,58.8,30.02,ESE,113,2.0,2.0,66,0.00,,,0.00,meteohub,2013-05-23 23:24:00,
2013-05-23 18:29:00,70.7,59.2,30.02,ESE,113,3.0,3.0,67,0.00,,,0.00,meteohub,2013-05-23 23:29:00,
2013-05-23 18:34:00,70.7,59.2,30.02,ENE,68,2.0,3.0,67,0.00,,,0.00,meteohub,2013-05-23 23:34:00,
2013-05-23 18:39:00,70.5,59.0,30.04,South,180,0.0,4.0,67,0.00,,,0.00,meteohub,2013-05-23 23:39:00,
2013-05-23 18:44:00,70.2,58.6,30.04,ESE,113,0.0,4.0,67,0.00,,,0.00,meteohub,2013-05-23 23:44:00,
2013-05-23 18:49:00,70.2,58.6,30.04,SW,225,0.0,4.0,67,0.00,,,0.00,meteohub,2013-05-23 23:49:00,
2013-05-23 18:54:00,70.2,58.6,30.04,ESE,113,2.0,2.0,67,0.00,,,0.00,meteohub,2013-05-23 23:54:00,
2013-05-23 18:59:00,70.3,58.8,30.04,ENE,68,1.0,2.0,67,0.00,,,0.00,meteohub,2013-05-23 23:59:00,
2013-05-23 19:04:00,70.0,59.0,30.04,West,270,0.0,2.0,68,0.00,,,0.00,meteohub,2013-05-24 00:04:00,
2013-05-23 19:09:00,69.8,58.8,30.04,ESE,113,0.0,2.0,68,0.00,,,0.00,meteohub,2013-05-24 00:09:00,
2013-05-23 19:14:00,69.8,58.8,30.04,ESE,113,0.0,2.0,68,0.00,,,0.00,meteohub,2013-05-24 00:14:00,
2013-05-23 19:19:00,69.6,58.6,30.04,ENE,68,0.0,0.0,68,0.00,,,0.00,meteohub,2013-05-24 00:19:00,
2013-05-23 19:24:00,69.4,58.5,30.04,ESE,113,2.0,2.0,68,0.00,,,0.00,meteohub,2013-05-24 00:24:00,
2013-05-23 19:29:00,69.4,58.5,30.04,ESE,113,0.0,1.0,68,0.00,,,0.00,meteohub,2013-05-24 00:29:00,
2013-05-23 19:34:00,69.3,58.6,30.04,ESE,113,0.0,2.0,69,0.00,,,0.00,meteohub,2013-05-24 00:34:00,
2013-05-23 19:39:00,69.6,59.0,30.04,ESE,113,0.0,2.0,69,0.00,,,0.00,meteohub,2013-05-24 00:39:00,
2013-05-23 19:44:00,69.4,58.5,30.04,ENE,68,2.0,0.0,68,0.00,,,0.00,meteohub,2013-05-24 00:44:00,
2013-05-23 19:49:00,69.1,58.1,30.04,ESE,113,0.0,0.0,68,0.00,,,0.00,meteohub,2013-05-24 00:49:00,
2013-05-23 19:54:00,69.3,58.3,30.04,SE,135,0.0,3.0,68,0.00,,,0.00,meteohub,2013-05-24 00:54:00,
2013-05-23 19:59:00,68.9,57.9,30.06,SE,135,0.0,3.0,68,0.00,,,0.00,meteohub,2013-05-24 00:59:00,
2013-05-23 20:04:00,68.5,57.9,30.06,ENE,68,0.0,3.0,69,0.00,,,0.00,meteohub,2013-05-24 01:04:00,
2013-05-23 20:09:00,68.2,57.6,30.06,ESE,113,3.0,0.0,69,0.00,,,0.00,meteohub,2013-05-24 01:09:00,
2013-05-23 20:14:00,67.8,57.2,30.06,ENE,68,3.0,3.0,69,0.00,,,0.00,meteohub,2013-05-24 01:14:00,
2013-05-23 20:19:00,67.5,57.0,30.06,ENE,68,3.0,3.0,69,0.00,,,0.00,meteohub,2013-05-24 01:19:00,
2013-05-23 20:24:00,67.1,56.7,30.06,ENE,68,2.0,3.0,69,0.00,,,0.00,meteohub,2013-05-24 01:24:00,
2013-05-23 20:29:00,66.7,56.3,30.06,ESE,113,0.0,3.0,69,0.00,,,0.00,meteohub,2013-05-24 01:29:00,
2013-05-23 20:34:00,66.7,56.7,30.06,East,90,1.0,3.0,70,0.00,,,0.00,meteohub,2013-05-24 01:34:00,
2013-05-23 20:39:00,66.4,56.3,30.08,ENE,68,0.0,3.0,70,0.00,,,0.00,meteohub,2013-05-24 01:39:00,
2013-05-23 20:44:00,66.0,56.3,30.08,ENE,68,0.0,3.0,71,0.00,,,0.00,meteohub,2013-05-24 01:44:00,
2013-05-23 20:49:00,65.8,56.1,30.08,ESE,113,2.0,2.0,71,0.00,,,0.00,meteohub,2013-05-24 01:49:00,
2013-05-23 20:54:00,65.7,55.9,30.08,ENE,68,0.0,3.0,71,0.00,,,0.00,meteohub,2013-05-24 01:54:00,
2013-05-23 20:59:00,65.1,55.4,30.11,ENE,68,0.0,3.0,71,0.00,,,0.00,meteohub,2013-05-24 01:59:00,
2013-05-23 21:04:00,65.1,55.4,30.11,East,90,0.0,3.0,71,0.00,,,0.00,meteohub,2013-05-24 02:04:00,
2013-05-23 21:09:00,64.8,55.6,30.11,ENE,68,2.0,2.0,72,0.00,,,0.00,meteohub,2013-05-24 02:09:00,
2013-05-23 21:14:00,64.6,55.4,30.11,ENE,68,2.0,3.0,72,0.00,,,0.00,meteohub,2013-05-24 02:14:00,
2013-05-23 21:19:00,64.4,55.2,30.09,ENE,68,2.0,3.0,72,0.00,,,0.00,meteohub,2013-05-24 02:19:00,
2013-05-23 21:24:00,64.2,55.4,30.09,ESE,113,2.0,3.0,73,0.00,,,0.00,meteohub,2013-05-24 02:24:00,
2013-05-23 21:29:00,63.9,55.0,30.09,ESE,113,2.0,2.0,73,0.00,,,0.00,meteohub,2013-05-24 02:29:00,
2013-05-23 21:34:00,63.7,54.9,30.09,ENE,68,2.0,2.0,73,0.00,,,0.00,meteohub,2013-05-24 02:34:00,
2013-05-23 21:39:00,63.5,54.7,30.09,ESE,113,2.0,2.0,73,0.00,,,0.00,meteohub,2013-05-24 02:39:00,
2013-05-23 21:44:00,63.5,55.0,30.09,ESE,113,3.0,3.0,74,0.00,,,0.00,meteohub,2013-05-24 02:44:00,
2013-05-23 21:49:00,63.1,54.7,30.09,ESE,113,3.0,3.0,74,0.00,,,0.00,meteohub,2013-05-24 02:49:00,
2013-05-23 21:54:00,63.1,54.7,30.09,ENE,68,2.0,4.0,74,0.00,,,0.00,meteohub,2013-05-24 02:54:00,
2013-05-23 21:59:00,63.1,54.7,30.10,ESE,113,3.0,4.0,74,0.00,,,0.00,meteohub,2013-05-24 02:59:00,
2013-05-23 22:04:00,62.8,54.7,30.10,ESE,113,2.0,4.0,75,0.00,,,0.00,meteohub,2013-05-24 03:04:00,
2013-05-23 22:09:00,62.6,54.5,30.10,ENE,68,2.0,3.0,75,0.00,,,0.00,meteohub,2013-05-24 03:09:00,
2013-05-23 22:14:00,62.8,54.7,30.10,ESE,113,3.0,3.0,75,0.00,,,0.00,meteohub,2013-05-24 03:14:00,
2013-05-23 22:19:00,62.4,54.3,30.11,ESE,113,3.0,3.0,75,0.00,,,0.00,meteohub,2013-05-24 03:19:00,
2013-05-23 22:24:00,62.2,54.1,30.11,East,90,0.0,3.0,75,0.00,,,0.00,meteohub,2013-05-24 03:24:00,
2013-05-23 22:29:00,62.2,54.1,30.11,ENE,68,2.0,3.0,75,0.00,,,0.00,meteohub,2013-05-24 03:29:00,
2013-05-23 22:34:00,62.1,54.3,30.11,ENE,68,3.0,3.0,76,0.00,,,0.00,meteohub,2013-05-24 03:34:00,
2013-05-23 22:39:00,62.1,54.3,30.12,ESE,113,0.0,2.0,76,0.00,,,0.00,meteohub,2013-05-24 03:39:00,
2013-05-23 22:44:00,61.9,54.3,30.12,ESE,113,0.0,3.0,76,0.00,,,0.00,meteohub,2013-05-24 03:44:00,
2013-05-23 22:49:00,61.7,54.5,30.13,East,90,2.0,3.0,77,0.00,,,0.00,meteohub,2013-05-24 03:49:00,
2013-05-23 22:54:00,61.5,54.3,30.13,ENE,68,1.0,3.0,77,0.00,,,0.00,meteohub,2013-05-24 03:54:00,
2013-05-23 22:59:00,61.5,54.3,30.13,SSW,203,2.0,3.0,77,0.00,,,0.00,meteohub,2013-05-24 03:59:00,
2013-05-23 23:01:00,61.5,54.3,30.13,SSW,203,2.0,3.0,77,0.00,,,0.00,meteohub,2013-05-24 04:01:00,
2013-05-23 23:06:00,61.2,54.0,30.13,East,90,2.0,3.0,77,0.00,,,0.00,meteohub,2013-05-24 04:06:00,
2013-05-23 23:11:00,61.2,54.3,30.13,East,90,3.0,3.0,78,0.00,,,0.00,meteohub,2013-05-24 04:11:00,
2013-05-23 23:16:00,61.0,54.1,30.13,East,90,2.0,3.0,78,0.00,,,0.00,meteohub,2013-05-24 04:16:00,
2013-05-23 23:21:00,60.8,54.3,30.13,ESE,113,4.0,4.0,79,0.00,,,0.00,meteohub,2013-05-24 04:21:00,
2013-05-23 23:26:00,60.8,54.3,30.13,ESE,113,2.0,4.0,79,0.00,,,0.00,meteohub,2013-05-24 04:26:00,
2013-05-23 23:31:00,60.6,54.1,30.13,ESE,113,3.0,4.0,79,0.00,,,0.00,meteohub,2013-05-24 04:31:00,
2013-05-23 23:36:00,60.6,54.1,30.13,ESE,113,3.0,4.0,79,0.00,,,0.00,meteohub,2013-05-24 04:36:00,
2013-05-23 23:41:00,60.6,54.1,30.13,ESE,113,0.0,4.0,79,0.00,,,0.00,meteohub,2013-05-24 04:41:00,
2013-05-23 23:46:00,60.4,54.0,30.13,ENE,68,2.0,4.0,79,0.00,,,0.00,meteohub,2013-05-24 04:46:00,
2013-05-23 23:51:00,60.3,54.1,30.13,ESE,113,3.0,4.0,80,0.00,,,0.00,meteohub,2013-05-24 04:51:00,
2013-05-23 23:56:00,60.1,54.0,30.13,ESE,113,2.0,4.0,80,0.00,,,0.00,meteohub,2013-05-24 04:56:00,